Time;durP1;ratioP1;P1;durP2;ratioP2;P2;SDS_P1;SDS_P2;PMS_P1;PMS_P2;Temp;Humidity;BMP_temperature;BMP_pressure;BME280_temperature;BME280_humidity;BME280_pressure;Samples;Min_cycle;Max_cycle;Signal;HPM_P1;HPM_P2
2021/11/07 00:00:35;;;;;;;20.52;16.10;;;9.90;99.90;;;;;;4130025;28;20042;-77
2021/11/07 00:04:48;;;;;;;22.15;18.40;;;9.90;99.90;;;;;;4127618;28;20034;-77
2021/11/07 00:06:53;;;;;;;24.55;15.60;;;9.90;99.90;;;;;;4113537;28;20414;-77
2021/11/07 00:09:46;;;;;;;22.52;15.57;;;9.90;99.90;;;;;;4127882;28;20522;-77
2021/11/07 00:13:47;;;;;;;24.15;18.98;;;9.90;99.90;;;;;;4120654;28;20506;-77
2021/11/07 00:15:48;;;;;;;24.10;16.85;;;9.90;99.90;;;;;;4122926;28;20490;-76
2021/11/07 00:17:53;;;;;;;20.50;14.82;;;9.90;99.90;;;;;;4127507;28;20033;-76
2021/11/07 00:20:00;;;;;;;25.05;18.70;;;10.00;99.90;;;;;;4128335;28;20113;-76
2021/11/07 00:22:14;;;;;;;27.52;17.67;;;10.00;99.90;;;;;;4127705;28;20561;-76
2021/11/07 00:24:28;;;;;;;14.15;11.65;;;10.00;99.90;;;;;;4128242;28;20442;-77
2021/11/07 00:26:38;;;;;;;26.55;16.85;;;10.10;99.90;;;;;;4130245;28;20058;-76
2021/11/07 00:28:44;;;;;;;27.48;18.23;;;10.00;99.90;;;;;;4127476;28;20105;-76
2021/11/07 00:31:04;;;;;;;23.95;18.30;;;10.10;99.90;;;;;;4141374;28;20049;-76
2021/11/07 00:33:25;;;;;;;25.88;19.40;;;10.00;99.90;;;;;;4118820;28;20035;-77
2021/11/07 00:37:48;;;;;;;22.02;15.35;;;10.10;99.90;;;;;;4130018;28;20088;-77
2021/11/07 00:40:40;;;;;;;23.52;16.70;;;10.10;99.90;;;;;;4127501;28;20043;-76
2021/11/07 00:42:22;;;;;;;31.48;20.60;;;10.10;99.90;;;;;;4128777;28;20560;-76
2021/11/07 00:44:32;;;;;;;;;;;10.10;99.90;;;;;;4127186;28;20034;-76
2021/11/07 00:46:45;;;;;;;28.95;17.40;;;10.10;99.90;;;;;;4127727;28;19925;-77
2021/11/07 00:48:50;;;;;;;24.30;18.92;;;10.10;99.90;;;;;;4115698;28;20037;-77
2021/11/07 00:51:12;;;;;;;29.60;21.42;;;10.20;99.90;;;;;;4124262;28;20023;-77
2021/11/07 00:55:30;;;;;;;32.75;23.73;;;10.20;99.90;;;;;;4124823;28;20042;-77
2021/11/07 00:59:45;;;;;;;35.72;23.35;;;10.10;99.90;;;;;;4126332;28;20031;-76
2021/11/07 01:01:52;;;;;;;33.88;20.40;;;10.20;99.90;;;;;;4131409;28;20031;-76
2021/11/07 01:03:55;;;;;;;35.88;20.50;;;10.20;99.90;;;;;;4128985;28;20030;-76
2021/11/07 01:05:56;;;;;;;30.80;21.10;;;10.30;99.90;;;;;;4130327;28;20042;-76
2021/11/07 01:07:56;;;;;;;31.35;19.95;;;10.30;99.90;;;;;;4128817;28;20270;-76
2021/11/07 01:09:57;;;;;;;32.10;22.17;;;10.30;99.90;;;;;;4129502;28;20467;-77
2021/11/07 01:11:58;;;;;;;22.23;15.30;;;10.30;99.90;;;;;;4122980;28;20031;-76
2021/11/07 01:13:58;;;;;;;25.38;17.65;;;10.40;99.90;;;;;;4120827;28;20529;-77
2021/11/07 01:16:00;;;;;;;30.10;20.45;;;10.40;99.90;;;;;;4128698;28;20089;-76
2021/11/07 01:18:00;;;;;;;26.23;19.10;;;10.50;99.90;;;;;;4127465;28;20054;-77
2021/11/07 01:20:04;;;;;;;28.02;20.73;;;10.50;99.90;;;;;;4129866;28;20034;-75
2021/11/07 01:22:07;;;;;;;27.92;17.42;;;10.50;99.90;;;;;;4130984;28;20539;-75
2021/11/07 01:24:18;;;;;;;25.73;17.50;;;10.50;99.90;;;;;;4131674;28;20030;-75
2021/11/07 01:28:27;;;;;;;38.45;21.73;;;10.50;99.90;;;;;;4131945;28;20486;-76
2021/11/07 01:30:31;;;;;;;32.38;18.38;;;10.50;99.90;;;;;;4130772;28;20445;-77
2021/11/07 01:32:38;;;;;;;27.92;19.02;;;10.50;99.90;;;;;;4130505;28;20030;-76
2021/11/07 01:36:52;;;;;;;35.20;20.83;;;10.60;99.90;;;;;;4130974;28;20042;-75
2021/11/07 01:39:06;;;;;;;27.25;18.42;;;10.60;99.90;;;;;;4130254;28;20399;-77
2021/11/07 01:43:11;;;;;;;23.90;18.38;;;10.60;99.90;;;;;;4120719;28;20102;-77
2021/11/07 01:45:22;;;;;;;26.27;18.50;;;10.60;99.90;;;;;;4125344;28;20053;-76
2021/11/07 01:47:25;;;;;;;30.77;18.70;;;10.60;99.90;;;;;;4126933;28;20032;-76
2021/11/07 01:49:33;;;;;;;32.13;20.45;;;10.70;99.90;;;;;;4129033;28;20042;-77
2021/11/07 01:51:34;;;;;;;25.05;19.88;;;10.60;99.90;;;;;;4131839;28;20022;-77
2021/11/07 01:53:38;;;;;;;32.40;21.13;;;10.70;99.90;;;;;;4129903;28;20038;-77
2021/11/07 01:55:39;;;;;;;26.55;19.23;;;10.60;99.90;;;;;;4130262;28;20109;-77
2021/11/07 01:57:41;;;;;;;26.00;19.15;;;10.60;99.90;;;;;;4128570;28;20049;-78
2021/11/07 01:59:47;;;;;;;27.95;17.15;;;10.60;99.90;;;;;;4117315;28;20048;-76
2021/11/07 02:01:58;;;;;;;30.77;18.85;;;10.70;99.90;;;;;;4130216;28;20390;-76
2021/11/07 02:03:59;;;;;;;28.17;19.40;;;10.70;99.90;;;;;;4118533;28;20067;-76
2021/11/07 02:06:01;;;;;;;32.70;19.05;;;10.80;99.90;;;;;;4129736;28;20066;-76
2021/11/07 02:08:03;;;;;;;27.08;17.98;;;10.80;99.90;;;;;;4128380;28;20057;-76
2021/11/07 02:10:08;;;;;;;30.53;18.80;;;10.80;99.90;;;;;;4125753;28;20074;-75
2021/11/07 02:12:11;;;;;;;31.20;21.90;;;10.70;99.90;;;;;;4119676;28;20105;-76
2021/11/07 02:14:12;;;;;;;25.88;18.15;;;10.80;99.90;;;;;;4120845;28;20055;-76
2021/11/07 02:16:13;;;;;;;26.75;13.95;;;10.80;99.90;;;;;;4123619;28;20050;-76
2021/11/07 02:18:16;;;;;;;27.10;18.38;;;10.80;99.90;;;;;;4127432;28;20019;-75
2021/11/07 02:20:24;;;;;;;32.63;20.02;;;10.80;99.90;;;;;;4126407;28;20031;-76
2021/11/07 02:22:24;;;;;;;29.67;18.73;;;10.80;99.90;;;;;;4130790;28;20052;-75
2021/11/07 02:24:28;;;;;;;24.88;16.15;;;10.80;99.90;;;;;;4130773;28;20530;-74
2021/11/07 02:26:28;;;;;;;29.50;18.20;;;10.80;99.90;;;;;;4131029;28;20077;-76
2021/11/07 02:28:38;;;;;;;29.00;18.50;;;10.80;99.90;;;;;;4130162;28;20537;-76
2021/11/07 02:30:39;;;;;;;25.40;17.83;;;10.80;99.90;;;;;;4131267;28;20114;-76
2021/11/07 02:32:42;;;;;;;27.25;17.15;;;10.90;99.90;;;;;;4144527;28;20042;-77
2021/11/07 02:34:44;;;;;;;31.45;19.75;;;10.90;99.90;;;;;;4130607;28;20030;-77
2021/11/07 02:36:45;;;;;;;33.85;18.40;;;10.80;99.90;;;;;;4125672;28;20058;-77
2021/11/07 02:38:48;;;;;;;29.63;19.88;;;10.80;99.90;;;;;;4126495;28;20371;-77
2021/11/07 02:40:49;;;;;;;38.25;22.30;;;10.80;99.90;;;;;;4130019;28;20038;-77
2021/11/07 02:42:51;;;;;;;24.98;18.02;;;10.80;99.90;;;;;;4129532;28;20094;-77
2021/11/07 02:44:52;;;;;;;31.38;18.83;;;10.90;99.90;;;;;;4129015;28;20038;-77
2021/11/07 02:46:52;;;;;;;36.60;17.60;;;10.80;99.90;;;;;;4129653;28;20038;-77
2021/11/07 02:48:57;;;;;;;36.75;21.45;;;10.90;99.90;;;;;;4129715;28;20134;-77
2021/11/07 02:50:57;;;;;;;31.35;19.95;;;10.90;99.90;;;;;;4122034;28;20497;-76
2021/11/07 02:52:58;;;;;;;36.58;19.52;;;10.90;99.90;;;;;;4121747;28;20051;-77
2021/11/07 02:54:59;;;;;;;34.55;23.27;;;10.90;99.90;;;;;;4122526;28;20044;-77
2021/11/07 02:57:01;;;;;;;24.55;14.27;;;10.90;99.90;;;;;;4130355;28;20560;-77
2021/11/07 02:59:03;;;;;;;36.47;18.60;;;11.00;99.90;;;;;;4127902;28;20397;-77
2021/11/07 03:01:04;;;;;;;27.88;18.45;;;11.00;99.90;;;;;;4123943;28;20144;-77
2021/11/07 03:03:05;;;;;;;24.80;16.52;;;11.00;99.90;;;;;;4123134;28;20093;-77
2021/11/07 03:05:08;;;;;;;38.10;21.13;;;11.00;99.90;;;;;;4115224;28;20611;-76
2021/11/07 03:07:09;;;;;;;34.95;21.00;;;11.00;99.90;;;;;;4123314;28;20042;-76
2021/11/07 03:09:18;;;;;;;37.42;23.08;;;10.90;99.90;;;;;;4123774;28;20037;-76
2021/11/07 03:11:19;;;;;;;32.65;19.33;;;10.90;99.90;;;;;;4127696;28;20173;-76
2021/11/07 03:13:20;;;;;;;40.22;23.40;;;11.00;99.90;;;;;;4126893;28;20065;-76
2021/11/07 03:15:22;;;;;;;36.53;20.40;;;11.00;99.90;;;;;;4126537;28;20129;-75
2021/11/07 03:17:25;;;;;;;39.58;21.70;;;11.00;99.90;;;;;;4126331;28;20080;-75
2021/11/07 03:19:27;;;;;;;;;;;11.10;99.90;;;;;;4130213;28;20034;-76
2021/11/07 03:21:28;;;;;;;31.48;18.65;;;11.10;99.90;;;;;;4129195;28;20005;-77
2021/11/07 03:23:29;;;;;;;45.05;18.77;;;11.10;99.90;;;;;;4127571;28;20493;-77
2021/11/07 03:25:30;;;;;;;30.95;18.48;;;11.10;99.90;;;;;;4127272;28;20437;-77
2021/11/07 03:27:39;;;;;;;36.00;19.13;;;11.10;99.90;;;;;;4127205;28;20105;-76
2021/11/07 03:29:43;;;;;;;33.65;20.40;;;11.10;99.90;;;;;;4129147;28;20402;-76
2021/11/07 03:33:53;;;;;;;28.98;16.90;;;11.20;99.90;;;;;;4127923;28;20030;-76
2021/11/07 03:35:56;;;;;;;30.88;17.33;;;11.20;99.90;;;;;;4128468;28;20031;-76
2021/11/07 03:37:57;;;;;;;31.10;13.98;;;11.10;99.90;;;;;;4128953;28;20041;-77
2021/11/07 03:40:00;;;;;;;22.85;9.93;;;11.10;99.90;;;;;;4117173;28;20027;-77
2021/11/07 03:42:02;;;;;;;31.10;9.40;;;11.20;99.90;;;;;;4123701;28;20030;-76
2021/11/07 03:44:03;;;;;;;20.63;7.70;;;11.10;99.90;;;;;;4129842;28;20026;-77
2021/11/07 03:46:04;;;;;;;33.15;8.73;;;11.10;99.90;;;;;;4127952;28;20281;-77
2021/11/07 03:48:06;;;;;;;25.42;6.90;;;11.00;99.90;;;;;;4129866;28;20041;-77
2021/11/07 03:50:07;;;;;;;25.92;6.80;;;11.00;99.90;;;;;;4127104;28;20101;-77
2021/11/07 03:52:09;;;;;;;23.80;6.88;;;10.90;99.90;;;;;;4114037;28;20027;-77
2021/11/07 03:54:13;;;;;;;15.75;6.72;;;10.80;99.90;;;;;;4128722;28;20030;-76
2021/11/07 03:56:13;;;;;;;;;;;10.70;99.90;;;;;;4114079;28;20380;-77
2021/11/07 03:58:14;;;;;;;20.88;6.13;;;10.70;99.90;;;;;;4128765;28;19960;-78
2021/11/07 04:00:17;;;;;;;26.55;8.02;;;10.70;99.90;;;;;;4127993;28;20057;-77
2021/11/07 04:02:19;;;;;;;18.42;6.85;;;10.60;99.90;;;;;;4126439;28;20054;-77
2021/11/07 04:04:20;;;;;;;21.58;5.63;;;10.60;99.90;;;;;;4128210;28;20038;-77
2021/11/07 04:06:21;;;;;;;22.45;7.60;;;10.60;99.90;;;;;;4124565;28;20121;-75
2021/11/07 04:08:21;;;;;;;18.42;6.63;;;10.60;99.90;;;;;;4126555;28;20458;-76
2021/11/07 04:10:22;;;;;;;21.42;6.78;;;10.60;99.90;;;;;;4120528;28;20035;-76
2021/11/07 04:12:23;;;;;;;19.83;6.00;;;10.50;99.90;;;;;;4120775;28;20745;-75
2021/11/07 04:14:23;;;;;;;17.88;6.13;;;10.50;99.90;;;;;;4127417;28;20057;-76
2021/11/07 04:16:24;;;;;;;23.85;5.90;;;10.50;99.90;;;;;;4128688;28;20037;-76
2021/11/07 04:18:25;;;;;;;33.28;6.65;;;10.40;99.90;;;;;;4128405;28;20417;-76
2021/11/07 04:20:25;;;;;;;24.25;6.20;;;10.30;99.90;;;;;;4130250;28;20038;-75
2021/11/07 04:22:26;;;;;;;28.38;6.90;;;10.30;99.90;;;;;;4127683;28;20035;-76
2021/11/07 04:24:27;;;;;;;36.05;6.88;;;10.20;99.90;;;;;;4127814;28;20038;-76
2021/11/07 04:26:28;;;;;;;24.88;6.30;;;10.10;99.90;;;;;;4127411;28;20046;-76
2021/11/07 04:28:28;;;;;;;31.90;6.72;;;10.00;99.90;;;;;;4124333;28;20034;-76
2021/11/07 04:30:29;;;;;;;23.73;5.30;;;10.00;99.90;;;;;;4128129;28;20034;-76
2021/11/07 04:32:29;;;;;;;25.42;6.70;;;10.00;99.90;;;;;;4130864;28;20393;-76
2021/11/07 04:34:30;;;;;;;25.50;6.43;;;9.90;99.90;;;;;;4131471;28;20093;-77
2021/11/07 04:36:31;;;;;;;28.05;6.45;;;9.90;99.90;;;;;;4129731;28;20073;-76
2021/11/07 04:38:36;;;;;;;22.90;6.75;;;9.90;99.90;;;;;;4131897;28;20045;-76
2021/11/07 04:40:36;;;;;;;27.52;8.65;;;10.00;99.90;;;;;;4129307;28;20035;-76
2021/11/07 04:42:37;;;;;;;29.75;5.80;;;10.00;99.90;;;;;;4128067;28;20025;-76
2021/11/07 04:44:38;;;;;;;29.85;6.72;;;9.90;99.90;;;;;;4128297;28;20041;-76
2021/11/07 04:46:39;;;;;;;28.77;6.97;;;9.90;99.90;;;;;;4117646;28;20363;-77
2021/11/07 04:48:44;;;;;;;23.67;7.00;;;9.90;99.90;;;;;;4129459;28;20034;-77
2021/11/07 04:50:48;;;;;;;33.47;6.75;;;9.80;99.90;;;;;;4131553;28;20427;-76
2021/11/07 04:52:49;;;;;;;28.65;6.45;;;9.80;99.90;;;;;;4130428;28;20062;-76
2021/11/07 04:54:50;;;;;;;27.77;7.03;;;9.80;99.90;;;;;;4130474;28;20374;-76
2021/11/07 04:56:51;;;;;;;35.55;6.88;;;9.80;99.90;;;;;;4127809;28;20034;-77
2021/11/07 04:58:52;;;;;;;32.63;6.63;;;9.90;99.90;;;;;;4132679;28;20046;-77
2021/11/07 05:00:54;;;;;;;31.67;6.15;;;9.90;99.90;;;;;;4124496;28;20053;-78
2021/11/07 05:02:55;;;;;;;36.35;6.20;;;9.90;99.90;;;;;;4127691;28;20038;-77
2021/11/07 05:04:56;;;;;;;23.70;6.78;;;9.90;99.90;;;;;;4127008;28;20074;-77
2021/11/07 05:06:57;;;;;;;43.55;9.40;;;9.90;99.90;;;;;;4123127;28;20038;-77
2021/11/07 05:08:57;;;;;;;25.35;6.97;;;9.90;99.90;;;;;;4128364;28;20058;-77
2021/11/07 05:10:59;;;;;;;27.65;7.28;;;9.90;99.90;;;;;;4129011;28;20473;-77
2021/11/07 05:12:59;;;;;;;34.58;7.55;;;9.90;99.90;;;;;;4130926;28;20030;-77
2021/11/07 05:15:00;;;;;;;27.65;5.65;;;9.80;99.90;;;;;;4124273;28;20513;-77
2021/11/07 05:17:02;;;;;;;17.17;4.82;;;9.80;99.90;;;;;;4129908;28;20125;-77
2021/11/07 05:19:04;;;;;;;27.75;5.75;;;9.80;99.90;;;;;;4125192;28;20053;-77
2021/11/07 05:21:05;;;;;;;27.40;7.47;;;9.80;99.90;;;;;;4117358;28;20034;-77
2021/11/07 05:23:05;;;;;;;29.50;7.30;;;9.70;99.90;;;;;;4141551;28;20072;-78
2021/11/07 05:25:09;;;;;;;22.25;5.93;;;9.70;99.90;;;;;;4130143;28;20514;-77
2021/11/07 05:27:10;;;;;;;21.05;6.63;;;9.70;99.90;;;;;;4127350;28;20084;-77
2021/11/07 05:29:11;;;;;;;33.83;6.95;;;9.60;99.90;;;;;;4131657;28;20113;-78
2021/11/07 05:31:12;;;;;;;34.58;6.55;;;9.50;99.90;;;;;;4128542;28;20478;-77
2021/11/07 05:33:14;;;;;;;19.13;6.53;;;9.50;99.90;;;;;;4130700;28;20022;-77
2021/11/07 05:35:20;;;;;;;27.95;5.88;;;9.40;99.90;;;;;;4128643;28;20039;-77
2021/11/07 05:37:21;;;;;;;27.02;6.30;;;9.30;99.90;;;;;;4117523;28;20030;-77
2021/11/07 05:39:22;;;;;;;26.05;5.53;;;9.20;99.90;;;;;;4131486;28;20031;-77
2021/11/07 05:41:23;;;;;;;23.33;5.65;;;9.20;99.90;;;;;;4129220;28;20034;-77
2021/11/07 05:43:23;;;;;;;28.95;7.35;;;9.30;99.90;;;;;;4130725;28;20053;-77
2021/11/07 05:45:24;;;;;;;22.58;6.93;;;9.40;99.90;;;;;;4129981;28;20030;-77
2021/11/07 05:47:25;;;;;;;22.50;5.75;;;9.40;99.90;;;;;;4131555;28;20056;-77
2021/11/07 05:49:25;;;;;;;19.17;6.13;;;9.40;99.90;;;;;;4130966;28;20095;-77
2021/11/07 05:51:26;;;;;;;29.23;6.45;;;9.40;99.90;;;;;;4121812;28;20122;-78
2021/11/07 05:53:27;;;;;;;23.38;5.80;;;9.30;99.90;;;;;;4121816;28;20126;-76
2021/11/07 05:55:28;;;;;;;28.02;6.22;;;9.20;99.90;;;;;;4129339;28;20441;-76
2021/11/07 05:57:28;;;;;;;16.40;5.43;;;9.20;99.90;;;;;;4130922;28;20141;-76
2021/11/07 05:59:29;;;;;;;21.85;5.95;;;9.10;99.90;;;;;;4130860;28;20046;-76
2021/11/07 06:01:30;;;;;;;26.23;5.72;;;9.10;99.90;;;;;;4128623;28;20065;-76
2021/11/07 06:03:31;;;;;;;24.10;7.65;;;9.10;99.90;;;;;;4127711;28;20470;-76
2021/11/07 06:05:32;;;;;;;21.08;6.20;;;9.00;99.90;;;;;;4127824;28;20038;-76
2021/11/07 06:07:33;;;;;;;25.55;6.28;;;8.90;99.90;;;;;;4115768;28;20031;-76
2021/11/07 06:09:33;;;;;;;21.75;5.72;;;8.90;99.90;;;;;;4126366;28;20065;-76
2021/11/07 06:11:34;;;;;;;21.58;4.70;;;8.80;99.90;;;;;;4130081;28;20053;-77
2021/11/07 06:13:35;;;;;;;29.00;6.00;;;8.80;99.90;;;;;;4130118;28;20487;-75
2021/11/07 06:15:36;;;;;;;16.00;6.43;;;8.80;99.90;;;;;;4131598;28;20039;-77
2021/11/07 06:17:37;;;;;;;17.58;5.57;;;8.70;99.90;;;;;;4130979;28;20069;-77
2021/11/07 06:19:38;;;;;;;19.58;5.63;;;8.70;99.90;;;;;;4130922;28;20517;-77
2021/11/07 06:21:41;;;;;;;19.73;5.10;;;8.60;99.90;;;;;;4130062;28;20039;-77
2021/11/07 06:23:42;;;;;;;23.85;6.45;;;8.70;99.90;;;;;;4130585;28;20037;-77
2021/11/07 06:25:43;;;;;;;21.67;6.75;;;8.60;99.90;;;;;;4129304;28;20037;-77
2021/11/07 06:27:43;;;;;;;20.75;5.22;;;8.60;99.90;;;;;;4130563;28;20463;-75
2021/11/07 06:29:44;;;;;;;20.08;5.40;;;8.60;99.90;;;;;;4124412;28;20031;-76
2021/11/07 06:31:45;;;;;;;27.13;6.22;;;8.50;99.90;;;;;;4120502;28;20043;-76
2021/11/07 06:33:45;;;;;;;25.00;5.90;;;8.50;99.90;;;;;;4129678;28;20038;-77
2021/11/07 06:35:46;;;;;;;29.90;5.93;;;8.50;99.90;;;;;;4128936;28;20057;-77
2021/11/07 06:37:47;;;;;;;23.48;5.45;;;8.30;99.90;;;;;;4123791;28;20035;-77
2021/11/07 06:39:48;;;;;;;28.98;6.68;;;8.30;99.90;;;;;;4122046;28;20391;-76
2021/11/07 06:41:48;;;;;;;28.65;6.55;;;8.20;99.90;;;;;;4129451;28;20048;-76
2021/11/07 06:43:49;;;;;;;30.38;6.85;;;8.20;99.90;;;;;;4130058;28;20602;-76
2021/11/07 06:45:50;;;;;;;30.17;6.30;;;8.20;99.90;;;;;;4129399;28;20717;-77
2021/11/07 06:47:51;;;;;;;24.92;5.72;;;8.20;99.90;;;;;;4125069;28;20038;-77
2021/11/07 06:49:53;;;;;;;24.05;6.10;;;8.20;99.90;;;;;;4129202;28;20114;-77
2021/11/07 06:51:54;;;;;;;24.97;6.90;;;8.20;99.90;;;;;;4122800;28;20123;-77
2021/11/07 06:53:55;;;;;;;24.58;6.15;;;8.20;99.90;;;;;;4132301;28;20304;-77
2021/11/07 06:55:56;;;;;;;17.83;5.60;;;8.20;99.90;;;;;;4125821;28;20113;-77
2021/11/07 06:57:57;;;;;;;17.25;4.85;;;8.30;99.90;;;;;;4130271;28;20046;-77
2021/11/07 06:59:58;;;;;;;20.00;6.30;;;8.30;99.90;;;;;;4130417;28;20049;-75
2021/11/07 07:01:58;;;;;;;18.75;5.88;;;8.30;99.90;;;;;;4124407;28;20872;-76
2021/11/07 07:03:59;;;;;;;23.83;5.22;;;8.30;99.90;;;;;;4126697;28;20046;-76
2021/11/07 07:06:00;;;;;;;22.83;6.75;;;8.40;99.90;;;;;;4128519;28;20045;-76
2021/11/07 07:08:19;;;;;;;28.60;7.15;;;8.30;99.90;;;;;;4142377;28;20057;-77
2021/11/07 07:10:35;;;;;;;22.15;6.40;;;8.40;99.90;;;;;;4117360;28;20043;-77
2021/11/07 07:12:47;;;;;;;19.90;6.10;;;8.40;99.90;;;;;;4123780;28;20042;-75
2021/11/07 07:14:57;;;;;;;26.55;5.95;;;8.40;99.90;;;;;;4117312;28;20097;-77
2021/11/07 07:30:10;;;;;;;27.65;5.97;;;8.20;99.90;;;;;;4126953;28;20042;-77
2021/11/07 07:32:25;;;;;;;23.17;5.25;;;8.30;99.90;;;;;;4129194;28;20034;-77
2021/11/07 07:34:26;;;;;;;25.55;6.63;;;8.40;99.90;;;;;;4130364;28;20041;-77
2021/11/07 07:36:27;;;;;;;19.73;5.05;;;8.40;99.90;;;;;;4128178;28;20037;-77
2021/11/07 07:38:28;;;;;;;26.75;6.85;;;8.50;99.90;;;;;;4128879;28;20073;-77
2021/11/07 07:40:29;;;;;;;23.73;6.35;;;8.50;99.90;;;;;;4128768;28;20085;-78
2021/11/07 07:42:31;;;;;;;22.70;6.07;;;8.50;99.90;;;;;;4128645;28;20041;-77
2021/11/07 07:44:34;;;;;;;23.50;5.47;;;8.50;99.90;;;;;;4128448;28;20035;-77
2021/11/07 07:46:37;;;;;;;24.52;6.00;;;8.50;99.90;;;;;;4129056;28;20058;-76
2021/11/07 07:48:41;;;;;;;18.08;6.32;;;8.60;99.90;;;;;;4128968;28;20489;-76
2021/11/07 07:50:42;;;;;;;19.42;5.30;;;8.60;99.90;;;;;;4129444;28;20121;-77
2021/11/07 07:52:43;;;;;;;23.10;6.05;;;8.70;99.90;;;;;;4129912;28;20031;-77
2021/11/07 07:54:44;;;;;;;29.63;7.65;;;8.70;99.90;;;;;;4127381;28;20023;-76
2021/11/07 07:56:44;;;;;;;25.48;6.10;;;8.80;99.90;;;;;;4118212;28;20049;-77
2021/11/07 07:58:45;;;;;;;26.42;5.15;;;8.90;99.90;;;;;;4122682;28;20121;-77
2021/11/07 08:00:46;;;;;;;28.90;5.60;;;9.00;99.90;;;;;;4114134;28;20097;-77
2021/11/07 08:02:47;;;;;;;30.27;7.57;;;9.20;99.90;;;;;;4124039;28;20047;-77
2021/11/07 08:04:49;;;;;;;21.75;5.55;;;9.40;99.90;;;;;;4116312;28;20100;-76
2021/11/07 08:06:49;;;;;;;28.67;6.22;;;9.60;99.90;;;;;;4132561;28;20117;-77
2021/11/07 08:08:50;;;;;;;15.20;4.90;;;9.70;99.90;;;;;;4131866;28;20499;-76
2021/11/07 08:10:51;;;;;;;28.77;8.15;;;9.70;99.90;;;;;;4130050;28;20118;-77
2021/11/07 08:12:52;;;;;;;22.40;5.50;;;9.50;99.90;;;;;;4119096;28;21162;-76
2021/11/07 08:14:53;;;;;;;23.83;5.50;;;9.40;99.90;;;;;;4144614;28;20056;-76
2021/11/07 08:16:54;;;;;;;26.77;6.45;;;9.40;99.90;;;;;;4132569;28;20386;-76
2021/11/07 08:18:55;;;;;;;28.15;6.70;;;9.30;99.90;;;;;;4128587;28;20033;-77
2021/11/07 08:20:56;;;;;;;24.42;7.13;;;9.20;99.90;;;;;;4122906;28;20042;-76
2021/11/07 08:22:57;;;;;;;17.77;5.70;;;9.20;99.90;;;;;;4128963;28;20495;-77
2021/11/07 08:24:58;;;;;;;19.95;5.72;;;9.10;99.90;;;;;;4127117;28;20034;-76
2021/11/07 08:26:59;;;;;;;23.17;5.82;;;9.20;99.90;;;;;;4129391;28;20470;-77
2021/11/07 08:29:00;;;;;;;28.85;8.15;;;9.20;99.90;;;;;;4130281;28;20058;-76
2021/11/07 08:31:06;;;;;;;26.90;5.93;;;9.20;99.90;;;;;;4127745;28;20054;-76
2021/11/07 08:33:08;;;;;;;25.65;6.28;;;9.30;99.90;;;;;;4130909;28;20034;-76
2021/11/07 08:35:09;;;;;;;26.13;7.03;;;9.50;99.90;;;;;;4129869;28;20031;-77
2021/11/07 08:37:13;;;;;;;24.80;6.40;;;9.70;99.90;;;;;;4130915;28;20042;-76
2021/11/07 08:39:24;;;;;;;24.95;5.57;;;9.80;99.90;;;;;;4129306;28;20038;-76
2021/11/07 08:41:26;;;;;;;25.40;6.22;;;9.90;99.90;;;;;;4128360;28;20398;-76
2021/11/07 09:00:15;;;;;;;16.85;4.13;;;10.40;99.90;;;;;;4120306;28;20466;-76
2021/11/07 09:02:06;;;;;;;25.83;5.80;;;10.60;99.90;;;;;;4130737;28;20030;-76
2021/11/07 09:04:37;;;;;;;22.05;5.82;;;10.90;99.90;;;;;;4125486;28;20018;-77
2021/11/07 09:07:00;;;;;;;18.27;4.72;;;11.10;99.90;;;;;;4128480;28;20038;-76
2021/11/07 09:09:01;;;;;;;18.42;5.05;;;11.20;99.90;;;;;;4128646;28;20026;-77
2021/11/07 09:11:03;;;;;;;33.53;8.43;;;11.10;99.90;;;;;;4129142;28;20030;-76
2021/11/07 09:13:06;;;;;;;19.33;6.03;;;11.10;99.90;;;;;;4130695;28;20061;-76
2021/11/07 09:15:07;;;;;;;;;;;11.10;99.90;;;;;;4129723;28;20030;-76
2021/11/07 09:17:11;;;;;;;24.55;5.45;;;11.00;99.90;;;;;;4129079;28;19945;-76
2021/11/07 09:19:14;;;;;;;14.00;4.50;;;11.00;99.90;;;;;;4131223;28;20763;-75
2021/11/07 09:21:22;;;;;;;14.90;5.00;;;11.00;99.90;;;;;;4129586;28;20026;-76
2021/11/07 09:25:40;;;;;;;23.05;5.97;;;11.10;99.90;;;;;;4131372;28;20498;-77
2021/11/07 09:27:50;;;;;;;20.48;5.43;;;11.10;99.90;;;;;;4129442;28;20035;-77
2021/11/07 09:30:04;;;;;;;18.67;5.35;;;11.20;99.90;;;;;;4130998;28;20177;-77
2021/11/07 09:34:58;;;;;;;23.10;6.72;;;11.70;99.90;;;;;;4131636;28;20030;-77
2021/11/07 09:36:44;;;;;;;25.42;4.93;;;12.00;99.90;;;;;;4129712;28;20448;-77
2021/11/07 09:41:09;;;;;;;20.65;5.95;;;12.30;99.90;;;;;;4131185;28;20631;-76
2021/11/07 09:45:36;;;;;;;32.42;6.35;;;11.70;99.90;;;;;;4131893;28;20041;-76
2021/11/07 09:47:41;;;;;;;16.27;4.63;;;11.50;99.90;;;;;;4130248;28;20550;-77
2021/11/07 09:49:48;;;;;;;19.38;5.78;;;11.50;99.90;;;;;;4129786;28;20034;-76
2021/11/07 09:52:09;;;;;;;11.88;3.92;;;11.50;99.90;;;;;;4130685;28;20533;-76
2021/11/07 09:54:12;;;;;;;17.13;4.38;;;11.70;99.90;;;;;;4129119;28;20043;-77
2021/11/07 09:56:13;;;;;;;18.17;5.20;;;12.00;99.90;;;;;;4128783;28;20035;-76
2021/11/07 09:58:15;;;;;;;17.08;5.07;;;12.30;99.90;;;;;;4130487;28;20054;-76
2021/11/07 10:00:21;;;;;;;17.95;5.22;;;12.60;99.90;;;;;;4131387;28;20045;-75
2021/11/07 10:02:23;;;;;;;26.60;5.90;;;12.70;99.90;;;;;;4130135;28;20036;-76
2021/11/07 10:04:37;;;;;;;17.65;4.85;;;12.80;99.90;;;;;;4130179;28;20042;-77
2021/11/07 10:06:51;;;;;;;18.52;4.43;;;13.00;99.90;;;;;;4129930;28;20034;-76
2021/11/07 10:08:53;;;;;;;24.88;5.50;;;13.30;99.90;;;;;;4129058;28;20109;-76
2021/11/07 10:11:02;;;;;;;19.70;5.93;;;13.60;99.90;;;;;;4129369;28;20533;-76
2021/11/07 10:13:10;;;;;;;20.00;4.60;;;13.80;99.90;;;;;;4128839;28;20026;-76
2021/11/07 10:15:38;;;;;;;13.98;4.30;;;14.00;99.90;;;;;;4129951;28;20045;-76
2021/11/07 10:20:15;;;;;;;11.30;4.75;;;14.00;99.90;;;;;;4131053;28;20037;-77
2021/11/07 10:22:22;;;;;;;17.60;5.15;;;13.70;99.90;;;;;;4127739;28;20080;-77
2021/11/07 10:24:29;;;;;;;11.60;3.95;;;13.40;99.90;;;;;;4128448;28;20490;-76
2021/11/07 10:26:40;;;;;;;24.85;5.47;;;13.10;99.90;;;;;;4129495;28;20131;-75
2021/11/07 10:28:49;;;;;;;18.98;5.32;;;12.70;99.90;;;;;;4130602;28;20054;-75
2021/11/07 10:31:14;;;;;;;16.95;4.22;;;12.60;99.90;;;;;;4129644;28;20033;-76
2021/11/07 10:33:56;;;;;;;14.55;5.07;;;12.90;99.90;;;;;;4130688;28;20359;-77
2021/11/07 10:45:15;;;;;;;28.88;5.50;;;13.10;99.90;;;;;;4129730;28;20034;-76
2021/11/07 10:52:24;;;;;;;17.67;4.40;;;14.50;99.90;;;;;;4128722;28;20053;-75
2021/11/07 10:54:25;;;;;;;22.55;5.93;;;14.90;99.90;;;;;;4126631;28;20122;-75
2021/11/07 10:56:25;;;;;;;16.88;3.83;;;15.10;99.90;;;;;;4124775;28;20460;-76
2021/11/07 10:58:31;;;;;;;9.77;3.65;;;15.00;99.90;;;;;;4128903;28;20022;-75
2021/11/07 11:00:34;;;;;;;18.77;5.63;;;15.10;99.90;;;;;;4128569;28;20110;-76
2021/11/07 11:02:45;;;;;;;18.77;5.43;;;15.00;99.90;;;;;;4129319;28;20062;-75
2021/11/07 11:05:04;;;;;;;19.48;6.10;;;15.40;99.90;;;;;;4123335;28;20058;-75
2021/11/07 11:07:11;;;;;;;17.00;4.85;;;15.70;99.90;;;;;;4128636;28;20042;-76
2021/11/07 11:09:18;;;;;;;17.73;4.65;;;15.80;99.90;;;;;;4128220;28;20100;-76
2021/11/07 11:11:28;;;;;;;11.85;3.53;;;15.90;99.90;;;;;;4128744;28;20034;-76
2021/11/07 11:15:42;;;;;;;13.07;4.28;;;15.70;99.90;;;;;;4129883;28;20533;-77
2021/11/07 11:18:30;;;;;;;14.30;4.75;;;15.10;99.90;;;;;;4128405;28;20028;-76
2021/11/07 11:20:53;;;;;;;12.40;4.82;;;14.50;99.90;;;;;;4126673;28;20034;-77
2021/11/07 11:23:12;;;;;;;15.90;4.28;;;13.90;99.90;;;;;;4124135;28;20023;-76
2021/11/07 11:25:34;;;;;;;20.77;5.88;;;13.60;99.90;;;;;;4127026;28;20043;-78
2021/11/07 11:27:54;;;;;;;15.60;5.55;;;13.50;99.90;;;;;;4126423;28;20125;-76
2021/11/07 11:32:07;;;;;;;18.10;5.22;;;13.00;99.90;;;;;;4128050;28;20062;-76
2021/11/07 11:34:13;;;;;;;23.55;5.75;;;12.80;99.90;;;;;;4127906;28;20030;-76
2021/11/07 11:38:22;;;;;;;21.52;5.80;;;12.20;99.90;;;;;;4127526;28;20035;-76
2021/11/07 11:42:36;;;;;;;8.25;3.38;;;11.50;99.90;;;;;;4130816;28;20363;-76
2021/11/07 11:44:37;;;;;;;19.58;5.18;;;10.90;99.90;;;;;;4127809;28;20117;-76
2021/11/07 11:46:59;;;;;;;19.90;5.65;;;10.10;99.90;;;;;;4129756;28;20038;-75
2021/11/07 11:49:56;;;;;;;14.02;3.90;;;9.70;99.90;;;;;;4129958;28;20042;-77
2021/11/07 11:54:52;;;;;;;21.30;5.55;;;9.60;99.90;;;;;;4118297;28;20039;-75
2021/11/07 11:57:51;;;;;;;21.33;5.45;;;9.50;99.90;;;;;;4144507;28;20034;-75
2021/11/07 12:00:38;;;;;;;15.13;3.70;;;9.30;99.90;;;;;;4129076;28;20348;-76
2021/11/07 12:04:36;;;;;;;23.60;6.88;;;9.40;99.90;;;;;;4129471;28;20030;-75
2021/11/07 12:08:51;;;;;;;14.50;5.20;;;9.60;99.90;;;;;;4130155;28;20022;-75
2021/11/07 12:13:49;;;;;;;20.10;5.80;;;10.90;99.90;;;;;;4127717;28;20088;-75
2021/11/07 12:15:51;;;;;;;17.17;5.63;;;10.60;99.90;;;;;;4129080;28;20077;-76